sensor_id;sensor_type;location;lat;lon;timestamp;P1;durP1;ratioP1;P2;durP2;ratioP2
59074;SDS011;44860;53.020;6.738;2023-07-16T00:01:09;6.05;;;2.70;;
59074;SDS011;44860;53.020;6.738;2023-07-16T00:03:34;9.68;;;2.70;;
59074;SDS011;44860;53.020;6.738;2023-07-16T00:06:00;8.02;;;2.88;;
59074;SDS011;44860;53.020;6.738;2023-07-16T00:08:26;7.38;;;2.53;;
59074;SDS011;44860;53.020;6.738;2023-07-16T00:10:51;9.00;;;2.92;;
59074;SDS011;44860;53.020;6.738;2023-07-16T00:13:17;7.75;;;2.65;;
59074;SDS011;44860;53.020;6.738;2023-07-16T00:15:43;7.70;;;2.70;;
59074;SDS011;44860;53.020;6.738;2023-07-16T00:18:08;9.65;;;2.50;;
59074;SDS011;44860;53.020;6.738;2023-07-16T00:20:34;8.77;;;2.58;;
59074;SDS011;44860;53.020;6.738;2023-07-16T00:23:00;6.75;;;2.20;;
59074;SDS011;44860;53.020;6.738;2023-07-16T00:25:25;10.02;;;2.72;;
59074;SDS011;44860;53.020;6.738;2023-07-16T00:27:51;8.15;;;2.80;;
59074;SDS011;44860;53.020;6.738;2023-07-16T00:30:16;7.28;;;2.58;;
59074;SDS011;44860;53.020;6.738;2023-07-16T00:32:42;10.18;;;2.80;;
59074;SDS011;44860;53.020;6.738;2023-07-16T00:35:08;10.93;;;2.80;;
59074;SDS011;44860;53.020;6.738;2023-07-16T00:37:34;8.70;;;2.70;;
59074;SDS011;44860;53.020;6.738;2023-07-16T00:40:00;6.75;;;2.40;;
59074;SDS011;44860;53.020;6.738;2023-07-16T00:42:26;10.52;;;3.22;;
59074;SDS011;44860;53.020;6.738;2023-07-16T00:44:51;7.65;;;2.83;;
59074;SDS011;44860;53.020;6.738;2023-07-16T00:47:17;8.23;;;2.58;;
59074;SDS011;44860;53.020;6.738;2023-07-16T00:49:43;9.93;;;3.47;;
59074;SDS011;44860;53.020;6.738;2023-07-16T00:52:11;11.32;;;3.25;;
59074;SDS011;44860;53.020;6.738;2023-07-16T00:54:42;10.63;;;3.03;;
59074;SDS011;44860;53.020;6.738;2023-07-16T00:57:08;7.70;;;2.63;;
59074;SDS011;44860;53.020;6.738;2023-07-16T00:59:34;8.27;;;3.00;;
59074;SDS011;44860;53.020;6.738;2023-07-16T01:01:59;7.65;;;2.83;;
59074;SDS011;44860;53.020;6.738;2023-07-16T01:04:25;8.65;;;2.97;;
59074;SDS011;44860;53.020;6.738;2023-07-16T01:06:51;8.70;;;2.88;;
59074;SDS011;44860;53.020;6.738;2023-07-16T01:09:20;6.88;;;2.88;;
59074;SDS011;44860;53.020;6.738;2023-07-16T01:11:47;7.53;;;3.13;;
59074;SDS011;44860;53.020;6.738;2023-07-16T01:14:14;10.18;;;3.10;;
59074;SDS011;44860;53.020;6.738;2023-07-16T01:16:42;6.43;;;2.70;;
59074;SDS011;44860;53.020;6.738;2023-07-16T01:19:08;7.80;;;2.92;;
59074;SDS011;44860;53.020;6.738;2023-07-16T01:21:41;8.30;;;2.85;;
59074;SDS011;44860;53.020;6.738;2023-07-16T01:27:26;10.32;;;2.90;;
59074;SDS011;44860;53.020;6.738;2023-07-16T01:30:24;10.55;;;2.95;;
59074;SDS011;44860;53.020;6.738;2023-07-16T01:32:53;9.65;;;3.25;;
59074;SDS011;44860;53.020;6.738;2023-07-16T01:35:20;10.00;;;3.22;;
59074;SDS011;44860;53.020;6.738;2023-07-16T01:37:46;9.60;;;3.13;;
59074;SDS011;44860;53.020;6.738;2023-07-16T01:40:12;10.10;;;3.40;;
59074;SDS011;44860;53.020;6.738;2023-07-16T01:42:39;9.15;;;2.72;;
59074;SDS011;44860;53.020;6.738;2023-07-16T01:45:05;10.35;;;3.42;;
59074;SDS011;44860;53.020;6.738;2023-07-16T01:50:24;9.30;;;3.10;;
59074;SDS011;44860;53.020;6.738;2023-07-16T01:52:49;8.10;;;3.15;;
59074;SDS011;44860;53.020;6.738;2023-07-16T01:55:15;12.75;;;3.22;;
59074;SDS011;44860;53.020;6.738;2023-07-16T01:57:41;8.10;;;3.00;;
59074;SDS011;44860;53.020;6.738;2023-07-16T02:00:07;9.18;;;3.17;;
59074;SDS011;44860;53.020;6.738;2023-07-16T02:02:33;8.20;;;3.20;;
59074;SDS011;44860;53.020;6.738;2023-07-16T02:04:59;9.60;;;3.53;;
59074;SDS011;44860;53.020;6.738;2023-07-16T02:07:25;11.00;;;3.38;;
59074;SDS011;44860;53.020;6.738;2023-07-16T02:09:50;6.05;;;3.10;;
59074;SDS011;44860;53.020;6.738;2023-07-16T02:12:16;11.38;;;3.35;;
59074;SDS011;44860;53.020;6.738;2023-07-16T02:14:42;9.63;;;3.50;;
59074;SDS011;44860;53.020;6.738;2023-07-16T02:17:07;7.57;;;3.20;;
59074;SDS011;44860;53.020;6.738;2023-07-16T02:19:33;8.77;;;3.40;;
59074;SDS011;44860;53.020;6.738;2023-07-16T02:21:59;7.35;;;3.53;;
59074;SDS011;44860;53.020;6.738;2023-07-16T02:24:24;12.43;;;3.90;;
59074;SDS011;44860;53.020;6.738;2023-07-16T02:26:50;10.57;;;3.63;;
59074;SDS011;44860;53.020;6.738;2023-07-16T02:29:16;11.77;;;4.13;;
59074;SDS011;44860;53.020;6.738;2023-07-16T02:31:41;12.30;;;4.40;;
59074;SDS011;44860;53.020;6.738;2023-07-16T02:34:11;11.50;;;4.10;;
59074;SDS011;44860;53.020;6.738;2023-07-16T02:36:37;11.05;;;4.30;;
59074;SDS011;44860;53.020;6.738;2023-07-16T02:39:03;10.57;;;4.38;;
59074;SDS011;44860;53.020;6.738;2023-07-16T02:41:28;11.77;;;4.43;;
59074;SDS011;44860;53.020;6.738;2023-07-16T02:44:01;11.55;;;4.50;;
59074;SDS011;44860;53.020;6.738;2023-07-16T02:46:30;16.08;;;4.72;;
59074;SDS011;44860;53.020;6.738;2023-07-16T02:48:56;10.93;;;4.28;;
59074;SDS011;44860;53.020;6.738;2023-07-16T02:51:21;9.85;;;4.18;;
59074;SDS011;44860;53.020;6.738;2023-07-16T02:53:47;9.93;;;4.45;;
59074;SDS011;44860;53.020;6.738;2023-07-16T02:56:13;12.55;;;4.45;;
59074;SDS011;44860;53.020;6.738;2023-07-16T02:58:38;10.15;;;4.38;;
59074;SDS011;44860;53.020;6.738;2023-07-16T03:01:04;11.95;;;4.55;;
59074;SDS011;44860;53.020;6.738;2023-07-16T03:03:30;13.82;;;4.32;;
59074;SDS011;44860;53.020;6.738;2023-07-16T03:05:55;10.63;;;4.22;;
59074;SDS011;44860;53.020;6.738;2023-07-16T03:08:21;9.60;;;4.20;;
59074;SDS011;44860;53.020;6.738;2023-07-16T03:10:47;10.45;;;4.70;;
59074;SDS011;44860;53.020;6.738;2023-07-16T03:13:13;8.77;;;4.40;;
59074;SDS011;44860;53.020;6.738;2023-07-16T03:15:39;10.05;;;4.07;;
59074;SDS011;44860;53.020;6.738;2023-07-16T03:18:04;10.88;;;3.95;;
59074;SDS011;44860;53.020;6.738;2023-07-16T03:20:30;10.15;;;4.00;;
59074;SDS011;44860;53.020;6.738;2023-07-16T03:22:56;14.02;;;4.50;;
59074;SDS011;44860;53.020;6.738;2023-07-16T03:25:21;8.25;;;4.28;;
59074;SDS011;44860;53.020;6.738;2023-07-16T03:27:47;11.30;;;4.15;;
59074;SDS011;44860;53.020;6.738;2023-07-16T03:30:13;10.45;;;4.60;;
59074;SDS011;44860;53.020;6.738;2023-07-16T03:32:38;10.63;;;4.75;;
59074;SDS011;44860;53.020;6.738;2023-07-16T03:35:04;10.18;;;4.57;;
59074;SDS011;44860;53.020;6.738;2023-07-16T03:37:30;10.27;;;4.38;;
59074;SDS011;44860;53.020;6.738;2023-07-16T03:39:55;12.80;;;4.55;;
59074;SDS011;44860;53.020;6.738;2023-07-16T03:42:21;11.63;;;4.97;;
59074;SDS011;44860;53.020;6.738;2023-07-16T03:44:47;11.85;;;4.90;;
59074;SDS011;44860;53.020;6.738;2023-07-16T03:47:13;9.10;;;4.43;;
59074;SDS011;44860;53.020;6.738;2023-07-16T03:49:38;12.15;;;5.20;;
59074;SDS011;44860;53.020;6.738;2023-07-16T03:52:05;16.08;;;5.38;;
59074;SDS011;44860;53.020;6.738;2023-07-16T03:54:31;9.48;;;5.05;;
59074;SDS011;44860;53.020;6.738;2023-07-16T03:56:56;16.45;;;4.90;;
59074;SDS011;44860;53.020;6.738;2023-07-16T03:59:22;13.20;;;4.97;;
59074;SDS011;44860;53.020;6.738;2023-07-16T04:01:48;10.07;;;4.82;;
59074;SDS011;44860;53.020;6.738;2023-07-16T04:04:13;10.70;;;4.70;;
59074;SDS011;44860;53.020;6.738;2023-07-16T04:06:39;11.05;;;4.60;;
59074;SDS011;44860;53.020;6.738;2023-07-16T04:09:05;11.65;;;4.65;;
59074;SDS011;44860;53.020;6.738;2023-07-16T04:11:30;11.43;;;5.10;;
59074;SDS011;44860;53.020;6.738;2023-07-16T04:13:56;13.65;;;5.00;;
59074;SDS011;44860;53.020;6.738;2023-07-16T04:16:21;11.32;;;5.50;;
59074;SDS011;44860;53.020;6.738;2023-07-16T04:18:47;10.98;;;4.80;;
59074;SDS011;44860;53.020;6.738;2023-07-16T04:21:13;14.65;;;5.43;;
59074;SDS011;44860;53.020;6.738;2023-07-16T04:23:38;12.27;;;4.97;;
59074;SDS011;44860;53.020;6.738;2023-07-16T04:26:04;10.50;;;5.07;;
59074;SDS011;44860;53.020;6.738;2023-07-16T04:28:30;12.38;;;5.47;;
59074;SDS011;44860;53.020;6.738;2023-07-16T04:30:55;14.10;;;5.25;;
59074;SDS011;44860;53.020;6.738;2023-07-16T04:33:21;12.73;;;5.72;;
59074;SDS011;44860;53.020;6.738;2023-07-16T04:35:47;12.32;;;5.30;;
59074;SDS011;44860;53.020;6.738;2023-07-16T04:38:12;12.13;;;6.00;;
59074;SDS011;44860;53.020;6.738;2023-07-16T04:40:38;9.75;;;5.20;;
59074;SDS011;44860;53.020;6.738;2023-07-16T04:43:04;12.57;;;4.95;;
59074;SDS011;44860;53.020;6.738;2023-07-16T04:45:29;13.02;;;5.28;;
59074;SDS011;44860;53.020;6.738;2023-07-16T04:47:55;10.85;;;5.18;;
59074;SDS011;44860;53.020;6.738;2023-07-16T04:50:21;13.88;;;5.47;;
59074;SDS011;44860;53.020;6.738;2023-07-16T04:52:46;13.23;;;5.10;;
59074;SDS011;44860;53.020;6.738;2023-07-16T04:55:12;10.05;;;4.85;;
59074;SDS011;44860;53.020;6.738;2023-07-16T04:57:38;12.93;;;4.95;;
59074;SDS011;44860;53.020;6.738;2023-07-16T05:00:04;9.88;;;5.07;;
59074;SDS011;44860;53.020;6.738;2023-07-16T05:02:31;12.48;;;5.07;;
59074;SDS011;44860;53.020;6.738;2023-07-16T05:04:58;14.27;;;5.50;;
59074;SDS011;44860;53.020;6.738;2023-07-16T05:07:23;14.70;;;5.25;;
59074;SDS011;44860;53.020;6.738;2023-07-16T05:09:49;12.23;;;4.80;;
59074;SDS011;44860;53.020;6.738;2023-07-16T05:12:15;8.98;;;4.85;;
59074;SDS011;44860;53.020;6.738;2023-07-16T05:14:44;12.60;;;5.00;;
59074;SDS011;44860;53.020;6.738;2023-07-16T05:17:11;10.70;;;4.65;;
59074;SDS011;44860;53.020;6.738;2023-07-16T05:19:37;11.80;;;4.63;;
59074;SDS011;44860;53.020;6.738;2023-07-16T05:22:03;12.70;;;5.05;;
59074;SDS011;44860;53.020;6.738;2023-07-16T05:24:29;12.02;;;5.13;;
59074;SDS011;44860;53.020;6.738;2023-07-16T05:26:56;11.07;;;4.60;;
59074;SDS011;44860;53.020;6.738;2023-07-16T05:29:21;11.95;;;4.65;;
59074;SDS011;44860;53.020;6.738;2023-07-16T05:31:47;12.05;;;4.75;;
59074;SDS011;44860;53.020;6.738;2023-07-16T05:34:13;14.75;;;5.00;;
59074;SDS011;44860;53.020;6.738;2023-07-16T05:36:40;10.20;;;4.40;;
59074;SDS011;44860;53.020;6.738;2023-07-16T05:39:07;11.48;;;4.35;;
59074;SDS011;44860;53.020;6.738;2023-07-16T05:41:33;12.43;;;4.45;;
59074;SDS011;44860;53.020;6.738;2023-07-16T05:43:59;14.45;;;5.25;;
59074;SDS011;44860;53.020;6.738;2023-07-16T05:46:25;13.93;;;4.57;;
59074;SDS011;44860;53.020;6.738;2023-07-16T05:48:51;12.25;;;4.68;;
59074;SDS011;44860;53.020;6.738;2023-07-16T05:51:17;11.57;;;4.57;;
59074;SDS011;44860;53.020;6.738;2023-07-16T05:53:42;9.88;;;4.88;;
59074;SDS011;44860;53.020;6.738;2023-07-16T05:56:08;10.52;;;4.47;;
59074;SDS011;44860;53.020;6.738;2023-07-16T05:58:34;9.65;;;4.25;;
59074;SDS011;44860;53.020;6.738;2023-07-16T06:00:59;15.38;;;4.60;;
59074;SDS011;44860;53.020;6.738;2023-07-16T06:03:25;15.25;;;4.80;;
59074;SDS011;44860;53.020;6.738;2023-07-16T06:05:51;12.63;;;4.93;;
59074;SDS011;44860;53.020;6.738;2023-07-16T06:08:16;11.80;;;4.93;;
59074;SDS011;44860;53.020;6.738;2023-07-16T06:10:42;13.10;;;4.05;;
59074;SDS011;44860;53.020;6.738;2023-07-16T06:13:07;11.45;;;4.35;;
59074;SDS011;44860;53.020;6.738;2023-07-16T06:15:33;7.55;;;3.78;;
59074;SDS011;44860;53.020;6.738;2023-07-16T06:17:59;10.43;;;3.95;;
59074;SDS011;44860;53.020;6.738;2023-07-16T06:20:25;10.38;;;4.22;;
59074;SDS011;44860;53.020;6.738;2023-07-16T06:22:50;12.95;;;4.78;;
59074;SDS011;44860;53.020;6.738;2023-07-16T06:25:16;10.23;;;4.57;;
59074;SDS011;44860;53.020;6.738;2023-07-16T06:27:42;12.18;;;4.57;;
59074;SDS011;44860;53.020;6.738;2023-07-16T06:30:07;10.07;;;4.50;;
59074;SDS011;44860;53.020;6.738;2023-07-16T06:32:33;9.75;;;4.47;;
59074;SDS011;44860;53.020;6.738;2023-07-16T06:34:59;13.88;;;5.35;;
59074;SDS011;44860;53.020;6.738;2023-07-16T06:37:24;12.60;;;5.15;;
59074;SDS011;44860;53.020;6.738;2023-07-16T06:39:50;10.35;;;4.65;;
59074;SDS011;44860;53.020;6.738;2023-07-16T06:42:16;10.90;;;4.55;;
59074;SDS011;44860;53.020;6.738;2023-07-16T06:44:42;10.32;;;5.22;;
59074;SDS011;44860;53.020;6.738;2023-07-16T06:47:07;11.88;;;4.85;;
59074;SDS011;44860;53.020;6.738;2023-07-16T06:49:33;13.70;;;4.80;;
59074;SDS011;44860;53.020;6.738;2023-07-16T06:52:02;13.23;;;4.60;;
59074;SDS011;44860;53.020;6.738;2023-07-16T06:54:28;15.27;;;5.03;;
59074;SDS011;44860;53.020;6.738;2023-07-16T06:56:53;11.95;;;4.93;;
59074;SDS011;44860;53.020;6.738;2023-07-16T06:59:19;12.13;;;4.97;;
59074;SDS011;44860;53.020;6.738;2023-07-16T07:01:45;9.50;;;5.20;;
59074;SDS011;44860;53.020;6.738;2023-07-16T07:04:11;13.73;;;5.13;;
59074;SDS011;44860;53.020;6.738;2023-07-16T07:06:37;10.43;;;5.00;;
59074;SDS011;44860;53.020;6.738;2023-07-16T07:09:03;8.52;;;4.53;;
59074;SDS011;44860;53.020;6.738;2023-07-16T07:11:30;11.05;;;5.35;;
59074;SDS011;44860;53.020;6.738;2023-07-16T07:13:56;9.95;;;4.85;;
59074;SDS011;44860;53.020;6.738;2023-07-16T07:16:22;10.77;;;5.38;;
59074;SDS011;44860;53.020;6.738;2023-07-16T07:18:48;12.13;;;5.15;;
59074;SDS011;44860;53.020;6.738;2023-07-16T07:21:14;12.07;;;5.50;;
59074;SDS011;44860;53.020;6.738;2023-07-16T07:23:40;10.75;;;4.93;;
59074;SDS011;44860;53.020;6.738;2023-07-16T07:26:06;10.68;;;4.95;;
59074;SDS011;44860;53.020;6.738;2023-07-16T07:28:31;12.93;;;5.68;;
59074;SDS011;44860;53.020;6.738;2023-07-16T07:30:57;11.57;;;4.80;;
59074;SDS011;44860;53.020;6.738;2023-07-16T07:33:24;10.93;;;5.05;;
59074;SDS011;44860;53.020;6.738;2023-07-16T07:35:52;10.85;;;5.15;;
59074;SDS011;44860;53.020;6.738;2023-07-16T07:38:20;10.65;;;4.57;;
59074;SDS011;44860;53.020;6.738;2023-07-16T07:40:46;10.95;;;4.90;;
59074;SDS011;44860;53.020;6.738;2023-07-16T07:43:11;10.35;;;5.10;;
59074;SDS011;44860;53.020;6.738;2023-07-16T07:45:37;12.20;;;5.63;;
59074;SDS011;44860;53.020;6.738;2023-07-16T07:48:03;14.43;;;5.60;;
59074;SDS011;44860;53.020;6.738;2023-07-16T07:50:29;9.43;;;4.75;;
59074;SDS011;44860;53.020;6.738;2023-07-16T07:52:54;10.90;;;5.13;;
59074;SDS011;44860;53.020;6.738;2023-07-16T07:55:20;9.65;;;4.80;;
59074;SDS011;44860;53.020;6.738;2023-07-16T07:57:46;10.85;;;4.75;;
59074;SDS011;44860;53.020;6.738;2023-07-16T08:00:11;10.57;;;5.25;;
59074;SDS011;44860;53.020;6.738;2023-07-16T08:02:37;17.15;;;5.05;;
59074;SDS011;44860;53.020;6.738;2023-07-16T08:05:03;12.88;;;5.82;;
59074;SDS011;44860;53.020;6.738;2023-07-16T08:07:29;9.85;;;4.70;;
59074;SDS011;44860;53.020;6.738;2023-07-16T08:09:55;9.95;;;4.60;;
59074;SDS011;44860;53.020;6.738;2023-07-16T08:12:21;14.93;;;5.03;;
59074;SDS011;44860;53.020;6.738;2023-07-16T08:14:47;10.23;;;5.15;;
59074;SDS011;44860;53.020;6.738;2023-07-16T08:17:13;11.18;;;4.70;;
59074;SDS011;44860;53.020;6.738;2023-07-16T08:19:39;10.35;;;4.65;;
59074;SDS011;44860;53.020;6.738;2023-07-16T08:22:04;9.82;;;4.88;;
59074;SDS011;44860;53.020;6.738;2023-07-16T08:24:30;10.40;;;4.85;;
59074;SDS011;44860;53.020;6.738;2023-07-16T08:26:56;11.23;;;4.60;;
59074;SDS011;44860;53.020;6.738;2023-07-16T08:29:21;9.48;;;5.00;;
59074;SDS011;44860;53.020;6.738;2023-07-16T08:31:47;25.30;;;6.78;;
59074;SDS011;44860;53.020;6.738;2023-07-16T08:34:13;13.90;;;5.22;;
59074;SDS011;44860;53.020;6.738;2023-07-16T08:36:38;12.63;;;4.95;;
59074;SDS011;44860;53.020;6.738;2023-07-16T08:39:04;10.02;;;4.97;;
59074;SDS011;44860;53.020;6.738;2023-07-16T08:41:30;13.10;;;5.20;;
59074;SDS011;44860;53.020;6.738;2023-07-16T08:43:56;9.55;;;4.70;;
59074;SDS011;44860;53.020;6.738;2023-07-16T08:46:22;11.70;;;5.00;;
59074;SDS011;44860;53.020;6.738;2023-07-16T08:48:48;12.48;;;5.38;;
59074;SDS011;44860;53.020;6.738;2023-07-16T08:51:14;9.40;;;4.90;;
59074;SDS011;44860;53.020;6.738;2023-07-16T08:53:43;9.93;;;5.07;;
59074;SDS011;44860;53.020;6.738;2023-07-16T08:56:09;11.88;;;4.93;;
59074;SDS011;44860;53.020;6.738;2023-07-16T08:58:35;10.75;;;5.20;;
59074;SDS011;44860;53.020;6.738;2023-07-16T09:01:02;10.40;;;5.15;;
59074;SDS011;44860;53.020;6.738;2023-07-16T09:03:29;12.70;;;5.15;;
59074;SDS011;44860;53.020;6.738;2023-07-16T09:05:54;9.80;;;5.05;;
59074;SDS011;44860;53.020;6.738;2023-07-16T09:08:20;10.48;;;5.20;;
59074;SDS011;44860;53.020;6.738;2023-07-16T09:10:52;11.45;;;5.00;;
59074;SDS011;44860;53.020;6.738;2023-07-16T09:13:23;11.75;;;5.18;;
59074;SDS011;44860;53.020;6.738;2023-07-16T09:15:52;10.75;;;5.20;;
59074;SDS011;44860;53.020;6.738;2023-07-16T09:18:19;10.65;;;5.60;;
59074;SDS011;44860;53.020;6.738;2023-07-16T09:20:46;10.38;;;5.22;;
59074;SDS011;44860;53.020;6.738;2023-07-16T09:23:11;8.90;;;5.00;;
59074;SDS011;44860;53.020;6.738;2023-07-16T09:25:37;11.23;;;5.07;;
59074;SDS011;44860;53.020;6.738;2023-07-16T09:28:04;12.32;;;5.32;;
59074;SDS011;44860;53.020;6.738;2023-07-16T09:30:31;9.98;;;4.95;;
59074;SDS011;44860;53.020;6.738;2023-07-16T09:32:58;10.02;;;4.50;;
59074;SDS011;44860;53.020;6.738;2023-07-16T09:35:37;9.52;;;4.90;;
59074;SDS011;44860;53.020;6.738;2023-07-16T09:38:03;11.32;;;4.70;;
59074;SDS011;44860;53.020;6.738;2023-07-16T09:40:29;9.90;;;4.70;;
59074;SDS011;44860;53.020;6.738;2023-07-16T09:42:55;10.07;;;4.50;;
59074;SDS011;44860;53.020;6.738;2023-07-16T09:45:22;8.90;;;4.78;;
59074;SDS011;44860;53.020;6.738;2023-07-16T09:47:47;10.52;;;4.90;;
59074;SDS011;44860;53.020;6.738;2023-07-16T09:50:13;8.30;;;4.53;;
59074;SDS011;44860;53.020;6.738;2023-07-16T09:52:40;9.98;;;4.68;;
59074;SDS011;44860;53.020;6.738;2023-07-16T09:55:08;8.40;;;4.43;;
59074;SDS011;44860;53.020;6.738;2023-07-16T09:57:39;9.68;;;4.50;;
59074;SDS011;44860;53.020;6.738;2023-07-16T10:00:11;7.72;;;4.47;;
59074;SDS011;44860;53.020;6.738;2023-07-16T10:02:39;10.77;;;4.97;;
59074;SDS011;44860;53.020;6.738;2023-07-16T10:05:18;8.88;;;4.60;;
59074;SDS011;44860;53.020;6.738;2023-07-16T10:07:52;8.80;;;4.22;;
59074;SDS011;44860;53.020;6.738;2023-07-16T10:10:37;10.02;;;4.97;;
59074;SDS011;44860;53.020;6.738;2023-07-16T10:13:04;8.85;;;4.50;;
59074;SDS011;44860;53.020;6.738;2023-07-16T10:15:29;10.10;;;4.68;;
59074;SDS011;44860;53.020;6.738;2023-07-16T10:17:56;11.43;;;4.72;;
59074;SDS011;44860;53.020;6.738;2023-07-16T10:20:35;12.82;;;4.65;;
59074;SDS011;44860;53.020;6.738;2023-07-16T10:23:14;7.57;;;4.40;;
59074;SDS011;44860;53.020;6.738;2023-07-16T10:28:22;10.00;;;5.00;;
59074;SDS011;44860;53.020;6.738;2023-07-16T10:30:49;6.78;;;4.50;;
59074;SDS011;44860;53.020;6.738;2023-07-16T10:33:15;10.18;;;4.70;;
59074;SDS011;44860;53.020;6.738;2023-07-16T10:35:41;11.48;;;4.72;;
59074;SDS011;44860;53.020;6.738;2023-07-16T10:38:08;10.90;;;4.65;;
59074;SDS011;44860;53.020;6.738;2023-07-16T10:40:38;8.93;;;4.57;;
59074;SDS011;44860;53.020;6.738;2023-07-16T10:43:05;12.45;;;4.82;;
59074;SDS011;44860;53.020;6.738;2023-07-16T10:45:31;9.05;;;4.43;;
59074;SDS011;44860;53.020;6.738;2023-07-16T10:47:57;11.30;;;4.97;;
59074;SDS011;44860;53.020;6.738;2023-07-16T10:50:23;9.75;;;5.18;;
59074;SDS011;44860;53.020;6.738;2023-07-16T10:52:52;7.45;;;4.85;;
59074;SDS011;44860;53.020;6.738;2023-07-16T10:55:19;14.60;;;10.93;;
59074;SDS011;44860;53.020;6.738;2023-07-16T10:57:49;9.30;;;5.60;;
59074;SDS011;44860;53.020;6.738;2023-07-16T11:00:16;14.88;;;8.48;;
59074;SDS011;44860;53.020;6.738;2023-07-16T11:02:43;14.93;;;8.27;;
59074;SDS011;44860;53.020;6.738;2023-07-16T11:05:10;10.70;;;4.80;;
59074;SDS011;44860;53.020;6.738;2023-07-16T11:07:37;9.57;;;4.57;;
59074;SDS011;44860;53.020;6.738;2023-07-16T11:10:03;9.40;;;4.60;;
59074;SDS011;44860;53.020;6.738;2023-07-16T11:12:29;9.25;;;4.72;;
59074;SDS011;44860;53.020;6.738;2023-07-16T11:14:55;7.68;;;4.03;;
59074;SDS011;44860;53.020;6.738;2023-07-16T11:17:23;7.35;;;3.85;;
59074;SDS011;44860;53.020;6.738;2023-07-16T11:19:50;8.15;;;4.57;;
59074;SDS011;44860;53.020;6.738;2023-07-16T11:22:17;7.78;;;4.53;;
59074;SDS011;44860;53.020;6.738;2023-07-16T11:24:44;10.15;;;5.53;;
59074;SDS011;44860;53.020;6.738;2023-07-16T11:32:13;12.27;;;4.43;;
59074;SDS011;44860;53.020;6.738;2023-07-16T11:34:52;8.73;;;4.70;;
59074;SDS011;44860;53.020;6.738;2023-07-16T11:37:18;10.15;;;4.63;;
59074;SDS011;44860;53.020;6.738;2023-07-16T11:39:46;9.02;;;4.28;;
59074;SDS011;44860;53.020;6.738;2023-07-16T11:42:13;9.90;;;4.35;;
59074;SDS011;44860;53.020;6.738;2023-07-16T11:44:38;7.30;;;4.70;;
59074;SDS011;44860;53.020;6.738;2023-07-16T11:47:04;10.40;;;4.43;;
59074;SDS011;44860;53.020;6.738;2023-07-16T11:49:30;8.20;;;4.20;;
59074;SDS011;44860;53.020;6.738;2023-07-16T11:51:56;7.15;;;4.43;;
59074;SDS011;44860;53.020;6.738;2023-07-16T11:54:23;12.52;;;5.00;;
59074;SDS011;44860;53.020;6.738;2023-07-16T11:56:48;11.77;;;4.72;;
59074;SDS011;44860;53.020;6.738;2023-07-16T11:59:15;9.70;;;4.60;;
59074;SDS011;44860;53.020;6.738;2023-07-16T12:01:45;8.80;;;4.97;;
59074;SDS011;44860;53.020;6.738;2023-07-16T12:04:12;11.00;;;5.55;;
59074;SDS011;44860;53.020;6.738;2023-07-16T12:06:37;8.68;;;4.70;;
59074;SDS011;44860;53.020;6.738;2023-07-16T12:09:03;9.40;;;4.93;;
59074;SDS011;44860;53.020;6.738;2023-07-16T12:11:29;7.63;;;4.57;;
59074;SDS011;44860;53.020;6.738;2023-07-16T12:13:54;8.95;;;5.00;;
59074;SDS011;44860;53.020;6.738;2023-07-16T12:16:20;7.82;;;4.63;;
59074;SDS011;44860;53.020;6.738;2023-07-16T12:18:46;9.45;;;5.22;;
59074;SDS011;44860;53.020;6.738;2023-07-16T12:21:12;8.32;;;4.90;;
59074;SDS011;44860;53.020;6.738;2023-07-16T12:23:37;8.30;;;4.60;;
59074;SDS011;44860;53.020;6.738;2023-07-16T12:26:03;8.38;;;4.68;;
59074;SDS011;44860;53.020;6.738;2023-07-16T12:28:29;10.35;;;4.60;;
59074;SDS011;44860;53.020;6.738;2023-07-16T12:30:54;9.63;;;4.78;;
59074;SDS011;44860;53.020;6.738;2023-07-16T12:33:20;11.20;;;4.57;;
59074;SDS011;44860;53.020;6.738;2023-07-16T12:35:46;9.60;;;4.63;;
59074;SDS011;44860;53.020;6.738;2023-07-16T12:38:12;11.10;;;4.45;;
59074;SDS011;44860;53.020;6.738;2023-07-16T12:40:38;6.75;;;4.40;;
59074;SDS011;44860;53.020;6.738;2023-07-16T12:43:06;7.72;;;4.78;;
59074;SDS011;44860;53.020;6.738;2023-07-16T12:45:32;8.65;;;4.95;;
59074;SDS011;44860;53.020;6.738;2023-07-16T12:47:58;9.00;;;4.38;;
59074;SDS011;44860;53.020;6.738;2023-07-16T12:50:23;13.75;;;4.78;;
59074;SDS011;44860;53.020;6.738;2023-07-16T12:52:50;8.95;;;4.65;;
59074;SDS011;44860;53.020;6.738;2023-07-16T12:55:17;11.07;;;5.03;;
59074;SDS011;44860;53.020;6.738;2023-07-16T12:57:44;8.70;;;4.47;;
59074;SDS011;44860;53.020;6.738;2023-07-16T13:00:10;10.65;;;4.75;;
59074;SDS011;44860;53.020;6.738;2023-07-16T13:02:36;9.70;;;4.97;;
59074;SDS011;44860;53.020;6.738;2023-07-16T13:05:02;8.85;;;4.78;;
59074;SDS011;44860;53.020;6.738;2023-07-16T13:07:28;9.55;;;5.00;;
59074;SDS011;44860;53.020;6.738;2023-07-16T13:09:55;9.82;;;4.82;;
59074;SDS011;44860;53.020;6.738;2023-07-16T13:12:21;10.50;;;5.03;;
59074;SDS011;44860;53.020;6.738;2023-07-16T13:14:47;11.00;;;5.50;;
59074;SDS011;44860;53.020;6.738;2023-07-16T13:17:12;10.63;;;5.18;;
59074;SDS011;44860;53.020;6.738;2023-07-16T13:19:40;10.48;;;5.15;;
59074;SDS011;44860;53.020;6.738;2023-07-16T13:22:05;9.77;;;5.25;;
59074;SDS011;44860;53.020;6.738;2023-07-16T13:24:31;8.63;;;5.30;;
59074;SDS011;44860;53.020;6.738;2023-07-16T13:26:57;11.27;;;5.28;;
59074;SDS011;44860;53.020;6.738;2023-07-16T13:29:22;9.02;;;5.22;;
59074;SDS011;44860;53.020;6.738;2023-07-16T13:31:48;12.13;;;5.55;;
59074;SDS011;44860;53.020;6.738;2023-07-16T13:34:14;8.50;;;4.65;;
59074;SDS011;44860;53.020;6.738;2023-07-16T13:36:39;11.55;;;5.13;;
59074;SDS011;44860;53.020;6.738;2023-07-16T13:39:05;9.55;;;4.88;;
59074;SDS011;44860;53.020;6.738;2023-07-16T13:41:31;10.45;;;4.63;;
59074;SDS011;44860;53.020;6.738;2023-07-16T13:43:57;6.38;;;3.80;;
59074;SDS011;44860;53.020;6.738;2023-07-16T13:46:23;8.15;;;4.00;;
59074;SDS011;44860;53.020;6.738;2023-07-16T13:48:49;6.90;;;3.30;;
59074;SDS011;44860;53.020;6.738;2023-07-16T13:51:14;6.95;;;3.17;;
59074;SDS011;44860;53.020;6.738;2023-07-16T13:53:40;6.50;;;3.08;;
59074;SDS011;44860;53.020;6.738;2023-07-16T13:56:06;7.20;;;3.30;;
59074;SDS011;44860;53.020;6.738;2023-07-16T13:58:33;6.90;;;3.33;;
59074;SDS011;44860;53.020;6.738;2023-07-16T14:00:59;6.68;;;3.20;;
59074;SDS011;44860;53.020;6.738;2023-07-16T14:03:24;7.60;;;3.50;;
59074;SDS011;44860;53.020;6.738;2023-07-16T14:05:51;5.85;;;3.22;;
59074;SDS011;44860;53.020;6.738;2023-07-16T14:08:18;7.05;;;3.20;;
59074;SDS011;44860;53.020;6.738;2023-07-16T14:10:44;5.28;;;3.05;;
59074;SDS011;44860;53.020;6.738;2023-07-16T14:13:10;5.95;;;2.95;;
59074;SDS011;44860;53.020;6.738;2023-07-16T14:15:37;5.40;;;3.20;;
59074;SDS011;44860;53.020;6.738;2023-07-16T14:18:03;6.93;;;3.03;;
59074;SDS011;44860;53.020;6.738;2023-07-16T14:20:29;7.80;;;3.55;;
59074;SDS011;44860;53.020;6.738;2023-07-16T14:22:54;13.60;;;3.13;;
59074;SDS011;44860;53.020;6.738;2023-07-16T14:25:20;7.65;;;3.20;;
59074;SDS011;44860;53.020;6.738;2023-07-16T14:27:46;4.82;;;2.83;;
59074;SDS011;44860;53.020;6.738;2023-07-16T14:30:12;7.20;;;2.85;;
59074;SDS011;44860;53.020;6.738;2023-07-16T14:32:38;8.60;;;2.83;;
59074;SDS011;44860;53.020;6.738;2023-07-16T14:35:04;6.50;;;2.72;;
59074;SDS011;44860;53.020;6.738;2023-07-16T14:37:30;6.70;;;2.65;;
59074;SDS011;44860;53.020;6.738;2023-07-16T14:39:56;6.70;;;2.83;;
59074;SDS011;44860;53.020;6.738;2023-07-16T14:42:21;7.60;;;2.97;;
59074;SDS011;44860;53.020;6.738;2023-07-16T14:44:47;8.93;;;3.67;;
59074;SDS011;44860;53.020;6.738;2023-07-16T14:47:13;5.88;;;2.55;;
59074;SDS011;44860;53.020;6.738;2023-07-16T14:49:38;6.55;;;2.85;;